Airfield :
LOGIN :

Register | Disclaimer

   EN    FR    IT 

 










Legend :    VFR   Marginal VFR   IFR   Intensive IFR   Very Intensive IFR
Visi :
Ceiling :
>= 8 km
>= 3000ft
5 to 8 km
1000 to 3000 ft
1500m to 5 km
500 to 1000 ft
800 to 1500m
200 to 500 ft
< 800m
< 200 ft
Symbols :   Thunderstorms  Fog  Heavy snow  Heavy precipitations  Wind > 20 kt
SIGMETs :     Misc.  Thunderstorms  Icing  Turbulence  Mountain Waves  Volcanic Ashes






- Airport Elevation : 184 ft
- IATA code : BRU


EBBR - Bruxelles

CURRENT METAR :
  • 041420Z 21009KT 9999 FEW032 18/10 Q1019 NOSIG

EXPIRED METARs :
  • 041350Z 22010KT 9999 FEW032 18/11 Q1020 NOSIG
  • 041320Z 21009KT 9999 FEW032 18/11 Q1020 NOSIG
  • 041250Z 22008KT 170V250 9999 FEW032 18/10 Q1020 NOSIG
  • 041220Z 22011KT 9999 FEW032 17/10 Q1020 NOSIG
  • 041150Z 20011KT 9999 FEW024 17/10 Q1020 NOSIG
  • 041120Z 20010KT 170V230 9999 FEW024 17/11 Q1021 NOSIG

TAF TAF EBBR
Valid from the 04 at 12:00 until the 05 at 18:00 UTC


041100Z 0412/0518 20008KT 9999 FEW030
TEMPO 0509/0518 23017G30KT



MET'MAP, your aeronautical weather chart ! - Copyright ORBIFLY December 2007 - Disclaimer

ORBIFLY MET'MAP TEAM :

Programming & Development : Alexandra Zaïnal
Original concept : Baudouin d'Aumeries
Technical & hardware support : Manuel Goepfert
Assistance : Marc-Olivier Méhu




SOURCES & CREDITS :

   NOAA